Time;durP1;ratioP1;P1;durP2;ratioP2;P2;SDS_P1;SDS_P2;PMS_P1;PMS_P2;Temp;Humidity;BMP_temperature;BMP_pressure;BME280_temperature;BME280_humidity;BME280_pressure;Samples;Min_cycle;Max_cycle;Signal;HPM_P1;HPM_P2
2021/06/19 04:01:53;;;;;;;14.60;7.17;;;23.70;99.90;;;;;;5340003;22;20595;-67
2021/06/19 04:04:20;;;;;;;12.30;6.73;;;23.70;99.90;;;;;;4996106;28;20449;-67
2021/06/19 04:06:46;;;;;;;9.00;6.60;;;23.70;99.90;;;;;;4996482;28;20450;-68
2021/06/19 04:09:13;;;;;;;13.47;7.53;;;23.50;99.90;;;;;;4996035;28;20450;-67
2021/06/19 04:11:40;;;;;;;17.77;7.77;;;23.50;99.90;;;;;;4996220;28;20477;-67
2021/06/19 04:14:06;;;;;;;12.67;6.90;;;23.60;99.90;;;;;;4996316;28;20457;-67
2021/06/19 04:16:33;;;;;;;9.07;7.27;;;23.60;99.90;;;;;;4996327;28;20464;-67
2021/06/19 04:19:01;;;;;;;12.20;7.33;;;23.70;99.90;;;;;;4996437;28;20461;-67
2021/06/19 04:21:28;;;;;;;14.67;7.93;;;23.80;99.90;;;;;;4996175;28;20470;-67
2021/06/19 04:23:55;;;;;;;16.60;7.43;;;23.80;99.90;;;;;;4997422;28;20457;-67
2021/06/19 04:26:22;;;;;;;16.07;6.50;;;23.80;99.90;;;;;;5005420;28;20457;-67
2021/06/19 04:28:48;;;;;;;10.50;6.63;;;23.90;99.90;;;;;;5002277;28;20963;-67
2021/06/19 04:31:15;;;;;;;14.60;7.67;;;24.00;99.90;;;;;;4995467;28;20486;-67
2021/06/19 04:33:42;;;;;;;15.63;6.57;;;24.00;99.90;;;;;;4996276;28;20454;-67
2021/06/19 04:36:12;;;;;;;12.43;7.20;;;24.00;99.90;;;;;;4995896;28;20461;-67
2021/06/19 04:38:38;;;;;;;14.50;7.93;;;24.10;99.90;;;;;;4995870;28;20509;-67
2021/06/19 04:41:08;;;;;;;14.10;7.30;;;24.10;99.90;;;;;;4995447;28;20837;-68
2021/06/19 04:43:41;;;;;;;16.57;7.53;;;24.10;99.90;;;;;;4995774;28;20453;-68
2021/06/19 04:46:08;;;;;;;16.70;7.43;;;24.00;99.90;;;;;;4995650;28;20906;-67
2021/06/19 04:48:35;;;;;;;15.23;7.50;;;24.00;99.90;;;;;;4995832;28;20457;-67
2021/06/19 04:51:02;;;;;;;14.03;7.33;;;24.00;99.90;;;;;;4995539;28;20832;-67
2021/06/19 04:53:30;;;;;;;16.30;7.90;;;24.00;99.90;;;;;;4995621;28;20461;-68
2021/06/19 04:55:56;;;;;;;13.97;7.50;;;24.00;99.90;;;;;;4995489;28;20461;-68
2021/06/19 04:58:24;;;;;;;13.23;7.20;;;24.00;99.90;;;;;;4995476;28;20453;-67
2021/06/19 05:00:51;;;;;;;16.73;9.23;;;24.10;99.90;;;;;;4994964;28;21038;-67
2021/06/19 05:03:18;;;;;;;13.17;7.17;;;24.10;99.90;;;;;;4995179;28;20454;-68
2021/06/19 05:05:45;;;;;;;12.07;7.43;;;24.20;99.90;;;;;;4995131;28;20956;-68
2021/06/19 05:08:12;;;;;;;12.97;7.83;;;24.40;99.90;;;;;;4995959;28;20457;-68
2021/06/19 05:10:40;;;;;;;18.93;7.87;;;24.40;99.90;;;;;;4994978;28;20989;-68
2021/06/19 05:13:06;;;;;;;13.87;7.60;;;24.50;99.90;;;;;;4995407;28;20453;-67
2021/06/19 05:15:33;;;;;;;14.53;8.43;;;24.60;99.90;;;;;;4995350;28;20460;-67
2021/06/19 05:18:00;;;;;;;11.60;7.80;;;24.50;99.90;;;;;;4995236;28;20454;-68
2021/06/19 05:20:28;;;;;;;11.27;8.00;;;24.50;99.90;;;;;;4994890;28;20959;-66
2021/06/19 05:22:55;;;;;;;16.33;7.53;;;24.50;99.90;;;;;;4995331;28;20454;-67
2021/06/19 05:25:22;;;;;;;16.73;9.80;;;24.60;99.90;;;;;;4995743;28;20791;-67
2021/06/19 05:27:50;;;;;;;12.20;8.43;;;24.70;99.90;;;;;;4995073;28;20491;-67
2021/06/19 05:30:17;;;;;;;13.07;7.73;;;24.70;99.90;;;;;;4994608;28;20589;-67
2021/06/19 05:32:44;;;;;;;15.03;8.20;;;24.70;99.90;;;;;;4994829;28;20464;-67
2021/06/19 05:35:11;;;;;;;12.13;9.10;;;24.80;99.90;;;;;;4995090;28;20461;-67
2021/06/19 05:37:38;;;;;;;16.50;9.80;;;24.90;99.90;;;;;;4994909;28;20457;-67
2021/06/19 05:40:07;;;;;;;14.13;8.77;;;24.90;99.90;;;;;;4995047;28;20446;-68
2021/06/19 05:42:34;;;;;;;12.47;8.50;;;24.90;99.90;;;;;;4994823;28;20845;-68
2021/06/19 05:45:02;;;;;;;16.33;9.33;;;24.90;99.90;;;;;;4995331;28;20459;-67
2021/06/19 05:47:29;;;;;;;18.40;9.93;;;24.80;99.90;;;;;;4995567;28;20848;-68
2021/06/19 05:49:56;;;;;;;13.53;9.63;;;24.90;99.90;;;;;;4995024;28;20453;-67
2021/06/19 05:52:25;;;;;;;15.97;8.87;;;24.90;99.90;;;;;;4994879;28;20473;-67
2021/06/19 05:54:52;;;;;;;13.10;8.37;;;25.00;99.90;;;;;;4995169;28;20457;-68
2021/06/19 05:57:19;;;;;;;12.10;8.53;;;25.20;99.90;;;;;;4995056;28;20462;-66
2021/06/19 05:59:46;;;;;;;12.03;8.30;;;25.30;99.90;;;;;;4995133;28;20526;-67
2021/06/19 06:02:14;;;;;;;16.17;8.70;;;25.40;99.90;;;;;;4994897;28;20486;-68
2021/06/19 06:04:42;;;;;;;11.67;7.90;;;25.50;99.90;;;;;;5002879;28;20544;-67
2021/06/19 06:07:08;;;;;;;18.40;8.20;;;25.80;99.90;;;;;;4996614;28;20454;-67
2021/06/19 06:09:35;;;;;;;14.30;8.73;;;25.80;99.90;;;;;;4994996;28;20805;-68
2021/06/19 06:12:02;;;;;;;14.67;8.50;;;25.90;99.90;;;;;;4994728;28;20481;-68
2021/06/19 06:14:29;;;;;;;15.40;7.90;;;26.00;99.90;;;;;;4994777;28;20458;-67
2021/06/19 06:16:56;;;;;;;15.57;8.77;;;26.10;99.90;;;;;;4995411;28;20460;-67
2021/06/19 06:19:24;;;;;;;14.60;8.13;;;26.30;99.90;;;;;;4996175;28;20460;-68
2021/06/19 06:21:51;;;;;;;13.83;8.37;;;26.30;99.90;;;;;;4994939;28;20492;-67
2021/06/19 06:24:18;;;;;;;13.63;7.87;;;26.40;99.90;;;;;;4997384;28;20464;-67
2021/06/19 06:26:45;;;;;;;15.10;8.83;;;26.50;99.90;;;;;;5002088;28;21043;-68
2021/06/19 06:29:12;;;;;;;13.00;7.90;;;26.60;99.90;;;;;;5001936;28;20453;-67
2021/06/19 06:31:39;;;;;;;15.27;8.33;;;26.80;99.90;;;;;;4995368;28;20492;-67
2021/06/19 06:34:06;;;;;;;12.13;8.40;;;27.00;99.90;;;;;;4994466;28;20803;-66
2021/06/19 06:36:34;;;;;;;12.30;8.23;;;26.90;99.90;;;;;;4994636;28;20449;-67
2021/06/19 06:39:03;;;;;;;13.93;8.80;;;27.10;99.90;;;;;;4995527;28;20446;-67
2021/06/19 06:41:30;;;;;;;15.17;8.37;;;27.30;99.90;;;;;;4994487;28;20528;-67
2021/06/19 06:43:58;;;;;;;12.33;8.20;;;27.60;99.90;;;;;;4994372;28;20454;-67
2021/06/19 06:46:24;;;;;;;8.10;7.40;;;27.90;99.90;;;;;;4994602;28;20872;-68
2021/06/19 06:48:51;;;;;;;9.73;8.13;;;28.20;99.90;;;;;;4994121;28;20481;-68
2021/06/19 06:51:18;;;;;;;10.13;8.50;;;28.30;99.90;;;;;;4994593;28;20492;-67
2021/06/19 06:53:46;;;;;;;14.77;8.30;;;28.40;99.90;;;;;;4995270;28;20979;-66
2021/06/19 06:56:13;;;;;;;10.67;7.57;;;28.70;99.90;;;;;;4998024;28;20944;-67
2021/06/19 06:58:39;;;;;;;11.33;8.47;;;28.90;99.90;;;;;;4997980;28;20458;-67
2021/06/19 07:01:07;;;;;;;9.90;7.60;;;29.10;99.90;;;;;;4998039;28;20493;-67
2021/06/19 07:03:34;;;;;;;9.60;7.57;;;29.40;99.90;;;;;;5000172;28;20467;-67
2021/06/19 07:06:01;;;;;;;7.90;7.10;;;29.90;99.90;;;;;;4998818;28;20801;-68
2021/06/19 07:08:28;;;;;;;7.30;6.50;;;30.30;99.90;;;;;;5005160;28;20540;-67
2021/06/19 07:10:57;;;;;;;10.47;7.40;;;30.80;99.90;;;;;;4999735;28;20485;-67
2021/06/19 07:13:23;;;;;;;13.30;6.77;;;31.30;99.90;;;;;;4999091;28;20866;-67
2021/06/19 07:15:50;;;;;;;6.87;6.13;;;31.70;99.90;;;;;;4999902;28;20453;-67
2021/06/19 07:18:18;;;;;;;9.00;6.97;;;31.80;99.90;;;;;;4999346;28;20465;-67
2021/06/19 07:20:44;;;;;;;12.67;8.17;;;32.50;99.90;;;;;;4999124;28;20470;-67
2021/06/19 07:23:11;;;;;;;13.77;8.23;;;33.30;98.20;;;;;;4998701;28;20457;-68
2021/06/19 07:25:38;;;;;;;7.40;6.60;;;33.90;98.20;;;;;;4998074;28;20453;-68
2021/06/19 07:28:06;;;;;;;8.93;6.70;;;34.10;95.60;;;;;;4998039;28;20453;-67
2021/06/19 07:30:33;;;;;;;9.87;6.70;;;33.90;94.60;;;;;;4997039;28;20494;-67
2021/06/19 07:33:00;;;;;;;12.30;6.93;;;34.10;93.60;;;;;;4997142;28;20485;-67
2021/06/19 07:35:27;;;;;;;7.83;6.87;;;34.40;93.60;;;;;;4997760;28;20457;-67
2021/06/19 07:37:54;;;;;;;10.07;5.90;;;34.20;91.10;;;;;;4996789;28;20459;-68
2021/06/19 07:40:21;;;;;;;11.37;7.53;;;34.60;90.80;;;;;;4997123;28;20201;-68
2021/06/19 07:42:47;;;;;;;14.43;6.90;;;34.90;89.50;;;;;;4997542;28;20454;-68
2021/06/19 07:45:16;;;;;;;8.10;6.80;;;35.20;90.00;;;;;;5003739;28;20457;-69
2021/06/19 07:47:43;;;;;;;8.30;6.63;;;35.00;88.40;;;;;;5000683;28;20459;-68
2021/06/19 07:50:10;;;;;;;7.80;6.70;;;35.20;89.00;;;;;;4998058;28;20461;-68
2021/06/19 07:52:37;;;;;;;8.40;7.20;;;35.40;89.10;;;;;;4997743;28;20481;-68
2021/06/19 07:55:05;;;;;;;10.80;6.73;;;35.40;90.00;;;;;;4997344;28;20438;-68
2021/06/19 07:57:31;;;;;;;9.00;6.23;;;35.70;88.60;;;;;;4996946;28;20460;-68
2021/06/19 07:59:58;;;;;;;8.80;6.57;;;35.60;83.80;;;;;;4996807;28;20462;-68
2021/06/19 08:02:26;;;;;;;9.10;7.60;;;35.70;83.50;;;;;;4996805;28;20485;-67
2021/06/19 08:04:53;;;;;;;12.37;7.17;;;35.70;83.00;;;;;;4996390;28;20460;-67
2021/06/19 08:07:20;;;;;;;9.90;7.40;;;35.60;83.40;;;;;;4997016;28;20834;-68
2021/06/19 08:09:46;;;;;;;9.77;7.10;;;35.80;88.30;;;;;;4996834;28;20464;-68
2021/06/19 08:12:13;;;;;;;11.17;6.97;;;36.30;83.80;;;;;;5002682;28;20575;-67
2021/06/19 08:14:40;;;;;;;8.73;7.23;;;36.40;80.90;;;;;;4998802;28;20457;-67
2021/06/19 08:17:15;;;;;;;9.83;6.93;;;36.80;80.10;;;;;;4996400;28;20481;-67
2021/06/19 08:19:44;;;;;;;8.90;6.57;;;37.10;76.10;;;;;;4996516;28;20441;-66
2021/06/19 08:22:11;;;;;;;9.83;6.73;;;37.40;75.80;;;;;;4996501;28;20480;-68
2021/06/19 08:24:38;;;;;;;8.47;6.87;;;37.80;77.90;;;;;;4996598;28;20823;-68
2021/06/19 08:27:06;;;;;;;7.70;7.00;;;38.00;78.40;;;;;;4996565;28;20453;-68
2021/06/19 08:29:33;;;;;;;9.10;6.13;;;37.70;76.90;;;;;;4996290;28;20463;-68
2021/06/19 08:32:00;;;;;;;12.17;7.17;;;38.10;73.60;;;;;;4995803;28;20976;-68
2021/06/19 08:34:27;;;;;;;10.80;7.63;;;37.10;74.50;;;;;;4996047;28;20459;-67
2021/06/19 08:36:55;;;;;;;10.77;7.20;;;36.80;73.80;;;;;;4996024;28;20496;-68
2021/06/19 08:39:22;;;;;;;13.10;7.87;;;37.00;76.90;;;;;;4996012;28;20453;-67
2021/06/19 08:41:49;;;;;;;15.83;7.83;;;36.70;75.00;;;;;;4995658;28;20981;-67
2021/06/19 08:44:22;;;;;;;13.30;7.37;;;37.10;74.70;;;;;;4995902;28;20461;-67
2021/06/19 08:46:49;;;;;;;9.23;6.97;;;37.40;76.40;;;;;;4995865;28;20438;-67
2021/06/19 08:49:16;;;;;;;9.63;6.37;;;37.30;75.00;;;;;;4995790;28;20453;-67
2021/06/19 08:51:44;;;;;;;9.60;7.57;;;37.70;70.40;;;;;;4995703;28;20485;-67
2021/06/19 08:54:12;;;;;;;8.40;6.53;;;37.70;71.10;;;;;;4995620;28;20449;-67
2021/06/19 08:56:40;;;;;;;12.40;8.77;;;37.60;71.20;;;;;;4995712;28;20457;-67
2021/06/19 08:59:06;;;;;;;29.77;11.20;;;37.70;73.80;;;;;;4995574;28;20461;-67
2021/06/19 09:01:33;;;;;;;8.37;6.73;;;37.60;73.30;;;;;;4995801;28;20484;-68
2021/06/19 09:04:03;;;;;;;7.03;6.33;;;37.80;73.00;;;;;;4995517;28;20461;-68
2021/06/19 09:06:30;;;;;;;10.90;6.77;;;38.00;71.20;;;;;;4995417;28;20464;-68
2021/06/19 09:09:06;;;;;;;8.97;7.23;;;38.50;75.00;;;;;;4995542;28;20455;-68
2021/06/19 09:11:36;;;;;;;7.93;7.20;;;38.50;68.00;;;;;;4995752;28;20968;-68
2021/06/19 09:14:04;;;;;;;11.43;6.67;;;38.80;68.90;;;;;;4995223;28;20465;-68
2021/06/19 09:16:31;;;;;;;9.80;6.10;;;39.20;64.90;;;;;;4994862;28;20459;-68
2021/06/19 09:18:58;;;;;;;8.03;6.93;;;39.20;66.20;;;;;;4994920;28;20453;-67
2021/06/19 09:21:30;;;;;;;7.73;6.93;;;39.10;69.90;;;;;;4995170;28;20814;-68
2021/06/19 09:23:57;;;;;;;7.47;6.67;;;39.00;70.00;;;;;;4995012;28;21002;-67
2021/06/19 09:26:27;;;;;;;9.03;6.23;;;39.20;69.30;;;;;;4995142;28;20461;-67
2021/06/19 09:29:07;;;;;;;10.10;6.87;;;39.20;64.90;;;;;;4995317;28;20485;-67
2021/06/19 09:31:37;;;;;;;10.20;7.03;;;38.50;67.00;;;;;;4996309;28;20481;-67
2021/06/19 09:34:06;;;;;;;7.67;6.40;;;38.50;65.90;;;;;;4998031;28;20965;-68
2021/06/19 09:36:52;;;;;;;15.13;6.43;;;39.00;65.00;;;;;;4995073;28;20204;-68
2021/06/19 09:39:20;;;;;;;7.37;5.97;;;39.30;61.70;;;;;;4994763;28;20626;-67
2021/06/19 09:41:51;;;;;;;12.37;6.87;;;39.60;61.50;;;;;;4994996;28;20481;-68
2021/06/19 09:44:34;;;;;;;7.80;5.97;;;39.60;62.90;;;;;;4994867;28;20181;-68
2021/06/19 09:47:01;;;;;;;12.67;6.33;;;39.50;65.40;;;;;;4995085;28;20443;-67
2021/06/19 09:49:33;;;;;;;8.43;6.50;;;39.80;59.90;;;;;;4994936;28;20290;-68
2021/06/19 09:52:00;;;;;;;7.43;6.73;;;40.20;60.00;;;;;;4994858;28;20223;-68
2021/06/19 09:54:27;;;;;;;12.88;7.47;;;40.80;60.30;;;;;;4994979;28;20554;-68
2021/06/19 09:56:56;;;;;;;6.97;6.10;;;40.70;58.30;;;;;;4994658;28;20682;-69
2021/06/19 09:59:29;;;;;;;9.30;6.23;;;40.10;59.40;;;;;;4995484;28;20201;-68
2021/06/19 10:01:57;;;;;;;11.17;6.63;;;40.30;57.90;;;;;;4995008;28;20263;-69
2021/06/19 10:04:25;;;;;;;13.47;6.30;;;40.40;60.00;;;;;;4994649;28;20206;-69
2021/06/19 10:06:53;;;;;;;12.67;7.00;;;40.60;60.60;;;;;;4995043;28;20213;-70
2021/06/19 10:09:20;;;;;;;8.38;6.75;;;40.70;58.80;;;;;;4994967;28;20193;-68
2021/06/19 10:11:48;;;;;;;10.27;7.17;;;40.60;57.50;;;;;;5002188;28;20238;-68
2021/06/19 10:14:19;;;;;;;9.33;7.00;;;40.60;57.60;;;;;;5005352;28;20215;-68
2021/06/19 10:16:50;;;;;;;6.77;5.80;;;40.20;57.00;;;;;;5001619;28;20189;-68
2021/06/19 10:19:20;;;;;;;9.10;6.60;;;39.90;59.10;;;;;;5003029;28;20199;-68
2021/06/19 10:21:50;;;;;;;15.03;6.57;;;39.70;59.80;;;;;;4996974;28;20222;-68
2021/06/19 10:24:17;;;;;;;10.60;7.10;;;38.70;60.10;;;;;;4995526;28;20469;-67
2021/06/19 10:26:44;;;;;;;15.60;7.30;;;38.60;61.10;;;;;;4994965;28;20457;-68
2021/06/19 10:29:12;;;;;;;13.97;7.83;;;38.30;65.80;;;;;;4996884;28;20473;-67
2021/06/19 10:31:42;;;;;;;9.63;7.07;;;38.10;64.40;;;;;;4998617;28;20897;-68
2021/06/19 10:34:37;;;;;;;8.10;7.00;;;38.30;66.40;;;;;;4999284;28;20444;-68
2021/06/19 10:37:07;;;;;;;8.97;6.90;;;38.30;63.10;;;;;;4985017;28;20508;-69
2021/06/19 10:39:41;;;;;;;13.00;7.03;;;38.10;66.00;;;;;;4999295;28;20807;-69
2021/06/19 10:42:28;;;;;;;11.73;7.77;;;38.20;64.30;;;;;;4999169;28;20500;-69
2021/06/19 10:44:58;;;;;;;12.47;7.30;;;38.70;60.30;;;;;;4999408;28;20440;-69
2021/06/19 10:47:26;;;;;;;17.03;9.00;;;38.70;59.60;;;;;;4999116;28;20441;-69
2021/06/19 10:49:55;;;;;;;11.90;7.70;;;38.90;62.20;;;;;;4998703;28;20816;-70
2021/06/19 10:52:38;;;;;;;13.67;6.60;;;38.90;62.70;;;;;;4998573;28;20841;-70
2021/06/19 10:55:19;;;;;;;9.90;6.33;;;39.20;60.20;;;;;;4996585;28;20608;-70
2021/06/19 10:57:47;;;;;;;10.70;6.70;;;39.30;60.60;;;;;;4997962;28;20451;-69
2021/06/19 11:00:46;;;;;;;11.97;6.63;;;39.40;61.00;;;;;;4999829;28;20453;-70
2021/06/19 11:03:14;;;;;;;17.67;7.43;;;39.50;59.00;;;;;;5001862;28;20430;-71
2021/06/19 11:05:58;;;;;;;8.27;7.43;;;39.30;59.80;;;;;;4998716;28;20458;-69
2021/06/19 11:08:26;;;;;;;8.70;7.27;;;39.50;60.60;;;;;;4999335;28;20492;-69
2021/06/19 11:10:55;;;;;;;13.37;7.77;;;38.90;59.10;;;;;;4998932;28;20548;-69
2021/06/19 11:13:41;;;;;;;8.93;7.70;;;39.00;60.40;;;;;;4998741;28;20497;-68
2021/06/19 11:16:47;;;;;;;14.70;7.40;;;38.80;59.70;;;;;;4998935;28;20457;-69
2021/06/19 11:19:32;;;;;;;7.50;6.67;;;38.50;61.40;;;;;;4999912;28;20517;-69
2021/06/19 11:22:31;;;;;;;11.33;7.87;;;38.00;64.00;;;;;;5004404;28;20472;-68
2021/06/19 11:25:36;;;;;;;10.30;6.37;;;37.50;64.10;;;;;;5009213;28;20464;-69
2021/06/19 11:28:05;;;;;;;11.70;6.20;;;37.30;60.70;;;;;;5006820;28;20480;-68
2021/06/19 11:30:57;;;;;;;13.50;6.90;;;36.40;59.50;;;;;;5000558;28;20458;-68
2021/06/19 11:33:57;;;;;;;9.60;7.40;;;36.50;65.90;;;;;;4998522;28;20468;-68
2021/06/19 11:36:37;;;;;;;12.30;7.43;;;36.40;64.10;;;;;;4998725;28;20451;-67
2021/06/19 11:39:15;;;;;;;11.50;7.70;;;35.80;69.70;;;;;;4998802;28;20443;-68
2021/06/19 11:41:44;;;;;;;11.70;7.50;;;35.70;65.30;;;;;;4998208;28;20888;-68
2021/06/19 11:44:23;;;;;;;11.67;7.50;;;35.80;64.60;;;;;;5000250;28;20461;-67
2021/06/19 11:46:53;;;;;;;8.73;7.10;;;35.90;64.80;;;;;;4999771;28;20441;-68
2021/06/19 11:49:34;;;;;;;11.37;7.37;;;35.60;64.70;;;;;;4998639;28;20493;-68
2021/06/19 11:52:02;;;;;;;12.07;6.93;;;35.50;67.30;;;;;;4997876;28;20481;-68
2021/06/19 11:54:31;;;;;;;7.67;6.90;;;35.60;67.40;;;;;;4998806;28;20453;-68
2021/06/19 11:56:58;;;;;;;10.77;6.70;;;35.60;64.70;;;;;;4997941;28;20457;-67
2021/06/19 11:59:27;;;;;;;9.30;6.90;;;35.80;63.70;;;;;;4997327;28;20819;-68
2021/06/19 12:01:54;;;;;;;10.67;6.97;;;35.70;68.70;;;;;;4996836;28;20569;-68
2021/06/19 12:04:25;;;;;;;14.77;6.97;;;35.60;69.40;;;;;;4997498;28;20937;-68
2021/06/19 12:06:54;;;;;;;10.33;7.17;;;35.50;64.90;;;;;;4998717;28;20446;-68
2021/06/19 12:09:23;;;;;;;9.90;6.20;;;35.60;63.70;;;;;;4998236;28;20457;-68
2021/06/19 12:11:54;;;;;;;10.30;6.70;;;35.50;65.20;;;;;;4996585;28;20873;-68
2021/06/19 12:14:26;;;;;;;9.50;6.77;;;35.30;62.80;;;;;;4997037;28;20438;-68
2021/06/19 12:16:53;;;;;;;10.87;6.40;;;35.00;67.50;;;;;;4996950;28;20448;-68
2021/06/19 12:19:23;;;;;;;16.73;6.37;;;35.20;66.10;;;;;;4996536;28;20484;-68
2021/06/19 12:21:50;;;;;;;9.03;6.40;;;34.90;61.60;;;;;;4997317;28;20501;-68
2021/06/19 12:24:25;;;;;;;11.87;6.30;;;34.90;62.00;;;;;;5003171;28;20801;-68
2021/06/19 12:27:09;;;;;;;11.67;6.63;;;35.00;62.90;;;;;;5001405;28;20820;-68
2021/06/19 12:29:41;;;;;;;12.20;5.93;;;35.10;64.70;;;;;;4999282;28;20437;-68
2021/06/19 12:32:20;;;;;;;12.97;6.60;;;35.00;62.20;;;;;;4997708;28;20540;-68
2021/06/19 12:34:47;;;;;;;12.80;6.60;;;35.10;65.80;;;;;;4997043;28;20944;-67
2021/06/19 12:37:15;;;;;;;12.33;5.83;;;34.80;64.00;;;;;;4996200;28;20453;-67
2021/06/19 12:39:44;;;;;;;10.57;6.17;;;34.90;63.00;;;;;;4996617;28;20460;-68
2021/06/19 12:42:12;;;;;;;8.63;5.40;;;34.80;60.90;;;;;;4996491;28;20473;-67
2021/06/19 12:44:39;;;;;;;11.87;5.70;;;34.80;60.30;;;;;;4996459;28;20457;-67
2021/06/19 12:47:17;;;;;;;14.10;6.50;;;34.60;60.40;;;;;;4996326;28;20485;-67
2021/06/19 12:49:56;;;;;;;12.17;5.87;;;34.70;61.50;;;;;;4996373;28;20459;-67
2021/06/19 12:52:23;;;;;;;10.33;5.93;;;34.90;62.50;;;;;;4997132;28;20512;-68
2021/06/19 12:55:08;;;;;;;8.07;6.13;;;34.90;60.60;;;;;;4998921;28;20818;-67
2021/06/19 12:57:36;;;;;;;13.40;6.17;;;35.00;60.20;;;;;;4998141;28;20433;-68
2021/06/19 13:00:04;;;;;;;9.70;5.70;;;35.20;62.20;;;;;;5001191;28;20453;-68
2021/06/19 13:02:31;;;;;;;10.13;5.73;;;35.10;60.10;;;;;;5000328;28;20560;-68
2021/06/19 13:04:57;;;;;;;8.87;6.13;;;35.00;58.50;;;;;;4996027;28;20464;-67
2021/06/19 13:07:31;;;;;;;7.80;5.23;;;34.90;58.90;;;;;;4995733;28;20464;-67
2021/06/19 13:09:58;;;;;;;7.70;5.63;;;34.80;60.00;;;;;;4996044;28;20446;-67
2021/06/19 13:12:27;;;;;;;10.77;6.20;;;34.90;58.50;;;;;;4995835;28;20492;-68
2021/06/19 13:15:10;;;;;;;13.93;5.67;;;35.00;58.50;;;;;;4995635;28;20457;-67
2021/06/19 13:17:44;;;;;;;16.53;6.00;;;35.20;60.00;;;;;;4995506;28;20445;-68
2021/06/19 13:20:27;;;;;;;12.87;5.47;;;35.30;57.20;;;;;;4996309;28;20446;-67
2021/06/19 13:23:09;;;;;;;12.33;5.50;;;35.40;57.50;;;;;;4996341;28;20437;-68
2021/06/19 13:26:11;;;;;;;8.43;6.10;;;35.20;57.50;;;;;;4995973;28;20444;-68
2021/06/19 13:28:44;;;;;;;14.97;6.73;;;35.00;56.70;;;;;;4995718;28;20442;-68
2021/06/19 13:31:14;;;;;;;11.27;6.13;;;35.00;57.20;;;;;;4995833;28;20469;-68
2021/06/19 13:33:46;;;;;;;15.07;5.93;;;35.00;57.30;;;;;;4995814;28;20484;-68
2021/06/19 13:36:21;;;;;;;13.20;5.90;;;35.10;59.00;;;;;;4995789;28;20444;-67
2021/06/19 13:38:58;;;;;;;11.67;6.33;;;35.00;59.30;;;;;;4995689;28;20437;-67
2021/06/19 13:41:27;;;;;;;15.57;5.07;;;35.30;60.00;;;;;;4995501;28;20484;-68
2021/06/19 13:43:54;;;;;;;10.67;5.20;;;35.30;56.30;;;;;;4996069;28;20453;-68
2021/06/19 13:46:23;;;;;;;11.80;5.97;;;35.50;56.70;;;;;;4995657;28;20476;-67
2021/06/19 13:48:49;;;;;;;9.93;5.50;;;35.60;55.60;;;;;;4999888;28;20461;-68
2021/06/19 13:51:16;;;;;;;16.47;6.00;;;35.70;58.40;;;;;;4995999;28;20992;-68
2021/06/19 13:53:47;;;;;;;10.03;5.77;;;35.90;59.10;;;;;;4996085;28;20473;-68
2021/06/19 13:56:15;;;;;;;9.57;5.47;;;36.10;55.60;;;;;;5004886;28;20534;-68
2021/06/19 13:58:42;;;;;;;14.77;5.37;;;36.00;54.10;;;;;;5004673;28;20457;-68
2021/06/19 14:01:12;;;;;;;17.63;6.20;;;36.00;56.50;;;;;;4999250;28;20492;-67
2021/06/19 14:03:41;;;;;;;13.43;5.57;;;35.90;55.70;;;;;;4994902;28;20988;-68
2021/06/19 14:06:11;;;;;;;12.60;5.53;;;35.90;55.20;;;;;;4995756;28;20449;-68
2021/06/19 14:08:40;;;;;;;16.13;5.37;;;35.80;55.30;;;;;;4994984;28;20964;-67
2021/06/19 14:11:07;;;;;;;12.53;5.93;;;35.40;55.40;;;;;;4995173;28;20477;-67
2021/06/19 14:13:34;;;;;;;12.27;5.90;;;35.30;56.20;;;;;;4994702;28;21010;-67
2021/06/19 14:16:00;;;;;;;8.60;5.43;;;35.40;55.80;;;;;;4995049;28;20442;-66
2021/06/19 14:18:27;;;;;;;7.47;5.37;;;35.50;56.20;;;;;;4995080;28;20448;-68
2021/06/19 14:20:55;;;;;;;16.30;5.63;;;35.60;57.50;;;;;;4995001;28;20476;-68
2021/06/19 14:23:22;;;;;;;16.57;7.27;;;35.80;56.30;;;;;;4995143;28;20457;-69
2021/06/19 14:25:49;;;;;;;12.83;8.10;;;35.90;56.30;;;;;;4995156;28;20464;-68
2021/06/19 14:28:16;;;;;;;16.70;10.83;;;35.70;56.20;;;;;;4999280;28;20555;-68
2021/06/19 14:30:42;;;;;;;13.40;6.90;;;35.70;57.60;;;;;;5002423;28;20481;-68
2021/06/19 14:33:10;;;;;;;11.10;6.90;;;35.60;57.60;;;;;;4995402;28;20488;-68
2021/06/19 14:35:36;;;;;;;11.63;7.10;;;35.60;57.80;;;;;;4994916;28;20437;-68
2021/06/19 14:38:04;;;;;;;14.53;6.23;;;35.70;56.80;;;;;;4995119;28;20437;-68
2021/06/19 14:40:32;;;;;;;12.10;6.53;;;35.60;56.60;;;;;;4994578;28;20457;-67
2021/06/19 14:42:58;;;;;;;13.87;6.77;;;35.60;58.50;;;;;;4995208;28;20457;-69
2021/06/19 14:45:29;;;;;;;9.63;6.17;;;35.40;60.70;;;;;;4994785;28;20489;-68
2021/06/19 14:47:55;;;;;;;12.57;6.33;;;35.30;58.80;;;;;;4997834;28;20449;-68
2021/06/19 14:50:23;;;;;;;8.93;6.50;;;35.20;59.30;;;;;;5001685;28;20453;-68
2021/06/19 14:52:51;;;;;;;14.13;6.27;;;35.20;61.00;;;;;;4994630;28;20980;-69
2021/06/19 14:55:19;;;;;;;12.47;6.13;;;35.20;60.70;;;;;;4994971;28;20460;-68
2021/06/19 14:57:48;;;;;;;15.17;5.93;;;35.30;62.50;;;;;;4996053;28;20472;-69
2021/06/19 15:00:16;;;;;;;9.20;5.93;;;35.40;61.10;;;;;;4995579;28;20453;-68
2021/06/19 15:02:43;;;;;;;11.23;6.70;;;35.30;61.50;;;;;;4994639;28;20488;-69
2021/06/19 15:05:11;;;;;;;11.73;6.47;;;35.30;59.50;;;;;;4994475;28;20968;-69
2021/06/19 15:07:38;;;;;;;10.97;6.73;;;35.30;59.90;;;;;;4994552;28;20457;-69
2021/06/19 15:10:06;;;;;;;11.97;6.60;;;35.20;62.40;;;;;;4994447;28;20461;-69
2021/06/19 15:12:34;;;;;;;15.83;6.87;;;35.10;63.00;;;;;;4994317;28;20484;-70
2021/06/19 15:15:01;;;;;;;11.10;6.70;;;35.00;61.90;;;;;;4994344;28;20483;-69
2021/06/19 15:17:28;;;;;;;13.57;7.67;;;34.90;62.80;;;;;;4997309;28;20960;-69
2021/06/19 15:19:55;;;;;;;11.30;7.17;;;34.90;64.00;;;;;;4997632;28;20449;-69
2021/06/19 15:22:21;;;;;;;14.70;7.23;;;34.90;64.30;;;;;;4997410;28;20473;-68
2021/06/19 15:24:48;;;;;;;11.03;7.10;;;35.00;63.70;;;;;;5009978;23;20485;-68
2021/06/19 15:27:15;;;;;;;14.63;8.63;;;35.00;63.40;;;;;;4997612;28;20448;-68
2021/06/19 15:29:43;;;;;;;13.27;7.47;;;34.80;62.50;;;;;;4997250;28;20454;-68
2021/06/19 15:32:10;;;;;;;14.77;7.20;;;34.80;63.20;;;;;;4997166;28;20477;-68
2021/06/19 15:34:37;;;;;;;14.37;7.30;;;35.00;62.80;;;;;;4997096;28;20477;-68
2021/06/19 15:37:04;;;;;;;14.60;7.03;;;35.00;62.40;;;;;;4997424;28;20453;-69
2021/06/19 15:39:31;;;;;;;13.90;6.80;;;35.00;64.20;;;;;;4997644;28;20464;-68
2021/06/19 15:41:58;;;;;;;12.20;7.10;;;35.10;63.50;;;;;;4997994;28;20990;-68
2021/06/19 15:44:25;;;;;;;12.17;7.30;;;35.30;64.40;;;;;;4996992;28;20458;-69
2021/06/19 15:46:53;;;;;;;12.87;7.37;;;35.30;64.80;;;;;;4996916;28;20797;-69
2021/06/19 15:49:20;;;;;;;9.23;6.53;;;35.30;63.40;;;;;;4996963;28;20460;-68
2021/06/19 15:51:47;;;;;;;11.63;8.03;;;35.30;64.60;;;;;;4996545;28;20477;-68
2021/06/19 15:54:14;;;;;;;14.23;8.30;;;35.10;66.60;;;;;;4996837;28;20473;-68
2021/06/19 15:56:41;;;;;;;13.13;7.60;;;35.00;65.00;;;;;;4997000;28;20464;-68
2021/06/19 15:59:08;;;;;;;15.90;8.43;;;34.90;64.50;;;;;;4996853;28;20455;-68
2021/06/19 16:01:36;;;;;;;14.10;7.83;;;34.60;64.00;;;;;;4996685;28;20479;-69
2021/06/19 16:04:05;;;;;;;13.67;9.10;;;34.50;64.40;;;;;;4996512;28;21060;-68
2021/06/19 16:06:33;;;;;;;19.77;14.27;;;34.30;65.00;;;;;;4996316;28;20976;-68
2021/06/19 16:09:00;;;;;;;12.10;8.33;;;34.30;64.90;;;;;;4996269;28;20964;-68
2021/06/19 16:11:27;;;;;;;13.73;8.83;;;34.20;64.50;;;;;;4996054;28;21003;-68
2021/06/19 16:13:54;;;;;;;14.43;8.13;;;34.30;66.10;;;;;;4996312;28;20838;-68
2021/06/19 16:16:20;;;;;;;11.47;7.60;;;34.30;64.70;;;;;;4996171;28;20461;-69
2021/06/19 16:18:47;;;;;;;12.83;9.37;;;34.30;65.40;;;;;;4996675;28;20453;-69
2021/06/19 16:21:15;;;;;;;12.23;8.37;;;34.30;65.30;;;;;;4996111;28;20483;-69
2021/06/19 16:23:42;;;;;;;14.40;7.93;;;34.30;65.00;;;;;;4996218;28;20476;-69
2021/06/19 16:26:09;;;;;;;12.30;9.73;;;34.20;63.90;;;;;;4995434;28;20468;-68
2021/06/19 16:28:36;;;;;;;14.07;9.07;;;34.00;64.00;;;;;;4995915;28;20857;-69
2021/06/19 16:31:03;;;;;;;11.77;7.80;;;33.90;64.70;;;;;;4996266;28;20472;-70
2021/06/19 16:33:31;;;;;;;11.50;7.87;;;33.80;64.70;;;;;;4996810;28;20500;-64
2021/06/19 16:35:58;;;;;;;14.30;8.40;;;33.70;65.30;;;;;;4999603;28;20445;-65
2021/06/19 16:38:26;;;;;;;12.37;7.67;;;33.60;65.10;;;;;;4996038;28;20937;-66
2021/06/19 16:40:52;;;;;;;14.23;7.50;;;33.60;65.60;;;;;;4996048;28;20477;-66
2021/06/19 16:43:19;;;;;;;13.03;7.93;;;33.50;65.80;;;;;;4996023;28;20453;-66
2021/06/19 16:45:46;;;;;;;11.10;8.43;;;33.60;67.40;;;;;;4996206;28;20464;-66
2021/06/19 16:48:13;;;;;;;12.53;7.77;;;33.70;67.30;;;;;;4996490;28;20465;-66
2021/06/19 16:50:39;;;;;;;13.30;7.83;;;33.60;66.60;;;;;;4996080;28;20482;-65
2021/06/19 16:53:06;;;;;;;9.60;8.03;;;33.50;66.60;;;;;;4996551;28;20453;-65